sensor_id;sensor_type;location;lat;lon;timestamp;temperature;humidity
72936;DHT22;61085;48.804;9.228;2023-02-01T00:00:03;6.10;99.90
72936;DHT22;61085;48.804;9.228;2023-02-01T00:02:29;6.00;99.90
72936;DHT22;61085;48.804;9.228;2023-02-01T00:04:54;5.90;99.90
72936;DHT22;61085;48.804;9.228;2023-02-01T00:07:20;5.90;99.90
72936;DHT22;61085;48.804;9.228;2023-02-01T00:09:45;5.90;99.90
72936;DHT22;61085;48.804;9.228;2023-02-01T00:12:11;5.90;99.90
72936;DHT22;61085;48.804;9.228;2023-02-01T00:14:37;6.00;99.90
72936;DHT22;61085;48.804;9.228;2023-02-01T00:17:05;6.00;99.90
72936;DHT22;61085;48.804;9.228;2023-02-01T00:19:32;6.00;99.90
72936;DHT22;61085;48.804;9.228;2023-02-01T00:21:57;5.90;99.90
72936;DHT22;61085;48.804;9.228;2023-02-01T00:24:23;5.90;99.90
72936;DHT22;61085;48.804;9.228;2023-02-01T00:26:48;5.90;99.90
72936;DHT22;61085;48.804;9.228;2023-02-01T00:29:18;5.80;99.90
72936;DHT22;61085;48.804;9.228;2023-02-01T00:31:44;5.80;99.90
72936;DHT22;61085;48.804;9.228;2023-02-01T00:34:15;5.80;99.90
72936;DHT22;61085;48.804;9.228;2023-02-01T00:36:42;5.80;99.90
72936;DHT22;61085;48.804;9.228;2023-02-01T00:39:09;5.70;99.90
72936;DHT22;61085;48.804;9.228;2023-02-01T00:41:34;5.80;99.90
72936;DHT22;61085;48.804;9.228;2023-02-01T00:44:00;5.80;99.90
72936;DHT22;61085;48.804;9.228;2023-02-01T00:46:27;5.80;99.90
72936;DHT22;61085;48.804;9.228;2023-02-01T00:48:53;5.80;99.90
72936;DHT22;61085;48.804;9.228;2023-02-01T00:51:21;5.80;99.90
72936;DHT22;61085;48.804;9.228;2023-02-01T00:53:47;5.70;99.90
72936;DHT22;61085;48.804;9.228;2023-02-01T00:56:13;5.70;99.90
72936;DHT22;61085;48.804;9.228;2023-02-01T00:58:42;5.80;99.90
72936;DHT22;61085;48.804;9.228;2023-02-01T01:03:35;5.80;99.90
72936;DHT22;61085;48.804;9.228;2023-02-01T01:06:05;5.80;99.90
72936;DHT22;61085;48.804;9.228;2023-02-01T01:08:32;5.80;99.90
72936;DHT22;61085;48.804;9.228;2023-02-01T01:10:58;5.80;99.90
72936;DHT22;61085;48.804;9.228;2023-02-01T01:13:24;5.80;99.90
72936;DHT22;61085;48.804;9.228;2023-02-01T01:15:49;5.80;99.90
72936;DHT22;61085;48.804;9.228;2023-02-01T01:18:15;5.80;99.90
72936;DHT22;61085;48.804;9.228;2023-02-01T01:20:41;5.70;99.90
72936;DHT22;61085;48.804;9.228;2023-02-01T01:23:08;5.70;99.90
72936;DHT22;61085;48.804;9.228;2023-02-01T01:25:38;5.70;99.90
72936;DHT22;61085;48.804;9.228;2023-02-01T01:28:04;5.60;99.90
72936;DHT22;61085;48.804;9.228;2023-02-01T01:30:29;5.70;99.90
72936;DHT22;61085;48.804;9.228;2023-02-01T01:32:55;5.70;99.90
72936;DHT22;61085;48.804;9.228;2023-02-01T01:35:20;5.60;99.90
72936;DHT22;61085;48.804;9.228;2023-02-01T01:37:46;5.70;99.90
72936;DHT22;61085;48.804;9.228;2023-02-01T01:40:12;5.70;99.90
72936;DHT22;61085;48.804;9.228;2023-02-01T01:42:39;5.80;99.90
72936;DHT22;61085;48.804;9.228;2023-02-01T01:45:40;5.80;99.90
72936;DHT22;61085;48.804;9.228;2023-02-01T01:48:04;5.70;99.90
72936;DHT22;61085;48.804;9.228;2023-02-01T01:50:47;5.70;99.90
72936;DHT22;61085;48.804;9.228;2023-02-01T01:53:17;5.80;99.90
72936;DHT22;61085;48.804;9.228;2023-02-01T01:55:45;5.80;99.90
72936;DHT22;61085;48.804;9.228;2023-02-01T01:58:16;5.80;99.90
72936;DHT22;61085;48.804;9.228;2023-02-01T02:00:43;5.90;99.90
72936;DHT22;61085;48.804;9.228;2023-02-01T02:03:18;5.90;99.90
72936;DHT22;61085;48.804;9.228;2023-02-01T02:05:45;5.90;99.90
72936;DHT22;61085;48.804;9.228;2023-02-01T02:08:12;5.90;99.90
72936;DHT22;61085;48.804;9.228;2023-02-01T02:10:37;5.90;99.90
72936;DHT22;61085;48.804;9.228;2023-02-01T02:13:22;6.00;99.90
72936;DHT22;61085;48.804;9.228;2023-02-01T02:36:03;6.00;99.90
72936;DHT22;61085;48.804;9.228;2023-02-01T02:50:35;6.00;99.90
72936;DHT22;61085;48.804;9.228;2023-02-01T02:53:30;6.00;99.90
72936;DHT22;61085;48.804;9.228;2023-02-01T02:56:18;6.00;99.90
72936;DHT22;61085;48.804;9.228;2023-02-01T02:59:04;6.10;99.90
72936;DHT22;61085;48.804;9.228;2023-02-01T03:01:50;6.10;99.90
72936;DHT22;61085;48.804;9.228;2023-02-01T03:04:35;6.00;99.90
72936;DHT22;61085;48.804;9.228;2023-02-01T03:09:59;5.90;99.90
72936;DHT22;61085;48.804;9.228;2023-02-01T03:12:32;6.00;99.90
72936;DHT22;61085;48.804;9.228;2023-02-01T03:15:18;6.00;99.90
72936;DHT22;61085;48.804;9.228;2023-02-01T03:17:45;6.00;99.90
72936;DHT22;61085;48.804;9.228;2023-02-01T03:20:12;6.10;99.90
72936;DHT22;61085;48.804;9.228;2023-02-01T03:22:39;6.10;99.90
72936;DHT22;61085;48.804;9.228;2023-02-01T03:25:19;6.10;99.90
72936;DHT22;61085;48.804;9.228;2023-02-01T03:27:53;6.10;99.90
72936;DHT22;61085;48.804;9.228;2023-02-01T03:30:29;6.00;99.90
72936;DHT22;61085;48.804;9.228;2023-02-01T03:32:59;6.00;99.90
72936;DHT22;61085;48.804;9.228;2023-02-01T03:40:55;6.00;99.90
72936;DHT22;61085;48.804;9.228;2023-02-01T03:43:24;6.00;99.90
72936;DHT22;61085;48.804;9.228;2023-02-01T03:45:58;6.00;99.90
72936;DHT22;61085;48.804;9.228;2023-02-01T03:48:26;6.10;99.90
72936;DHT22;61085;48.804;9.228;2023-02-01T03:50:56;6.10;99.90
72936;DHT22;61085;48.804;9.228;2023-02-01T03:53:23;6.00;99.90
72936;DHT22;61085;48.804;9.228;2023-02-01T03:55:51;6.10;99.90
72936;DHT22;61085;48.804;9.228;2023-02-01T03:58:20;6.10;99.90
72936;DHT22;61085;48.804;9.228;2023-02-01T04:00:57;6.10;99.90
72936;DHT22;61085;48.804;9.228;2023-02-01T04:03:24;6.20;99.90
72936;DHT22;61085;48.804;9.228;2023-02-01T04:05:50;6.20;99.90
72936;DHT22;61085;48.804;9.228;2023-02-01T04:08:18;6.20;99.90
72936;DHT22;61085;48.804;9.228;2023-02-01T04:10:43;6.20;99.90
72936;DHT22;61085;48.804;9.228;2023-02-01T04:13:09;6.20;99.90
72936;DHT22;61085;48.804;9.228;2023-02-01T04:15:35;6.10;99.90
72936;DHT22;61085;48.804;9.228;2023-02-01T04:18:01;6.10;99.90
72936;DHT22;61085;48.804;9.228;2023-02-01T04:20:26;6.20;99.90
72936;DHT22;61085;48.804;9.228;2023-02-01T04:22:52;6.10;99.90
72936;DHT22;61085;48.804;9.228;2023-02-01T04:25:18;6.20;99.90
72936;DHT22;61085;48.804;9.228;2023-02-01T04:27:44;6.20;99.90
72936;DHT22;61085;48.804;9.228;2023-02-01T04:30:10;6.20;99.90
72936;DHT22;61085;48.804;9.228;2023-02-01T04:32:37;6.20;99.90
72936;DHT22;61085;48.804;9.228;2023-02-01T04:35:03;6.30;99.90
72936;DHT22;61085;48.804;9.228;2023-02-01T04:37:29;6.20;99.90
72936;DHT22;61085;48.804;9.228;2023-02-01T04:39:54;6.10;99.90
72936;DHT22;61085;48.804;9.228;2023-02-01T04:42:20;6.20;99.90
72936;DHT22;61085;48.804;9.228;2023-02-01T04:44:46;6.10;99.90
72936;DHT22;61085;48.804;9.228;2023-02-01T04:47:12;6.00;99.90
72936;DHT22;61085;48.804;9.228;2023-02-01T04:49:37;6.10;99.90
72936;DHT22;61085;48.804;9.228;2023-02-01T04:52:03;6.10;99.90
72936;DHT22;61085;48.804;9.228;2023-02-01T04:54:29;6.20;99.90
72936;DHT22;61085;48.804;9.228;2023-02-01T04:56:55;6.20;99.90
72936;DHT22;61085;48.804;9.228;2023-02-01T04:59:20;6.20;99.90
72936;DHT22;61085;48.804;9.228;2023-02-01T05:01:46;6.20;99.90
72936;DHT22;61085;48.804;9.228;2023-02-01T05:04:11;6.20;99.90
72936;DHT22;61085;48.804;9.228;2023-02-01T05:06:37;6.20;99.90
72936;DHT22;61085;48.804;9.228;2023-02-01T05:09:03;5.80;99.90
72936;DHT22;61085;48.804;9.228;2023-02-01T05:11:28;6.30;99.90
72936;DHT22;61085;48.804;9.228;2023-02-01T05:14:12;6.60;99.90
72936;DHT22;61085;48.804;9.228;2023-02-01T05:16:38;6.40;99.90
72936;DHT22;61085;48.804;9.228;2023-02-01T05:19:03;6.40;99.90
72936;DHT22;61085;48.804;9.228;2023-02-01T05:21:29;6.40;99.90
72936;DHT22;61085;48.804;9.228;2023-02-01T05:23:55;6.40;99.90
72936;DHT22;61085;48.804;9.228;2023-02-01T05:26:42;6.40;99.90
72936;DHT22;61085;48.804;9.228;2023-02-01T05:29:09;6.40;99.90
72936;DHT22;61085;48.804;9.228;2023-02-01T05:31:35;6.30;99.90
72936;DHT22;61085;48.804;9.228;2023-02-01T05:34:00;6.20;99.90
72936;DHT22;61085;48.804;9.228;2023-02-01T05:36:26;6.20;99.90
72936;DHT22;61085;48.804;9.228;2023-02-01T05:38:52;6.20;99.90
72936;DHT22;61085;48.804;9.228;2023-02-01T05:41:17;6.30;99.90
72936;DHT22;61085;48.804;9.228;2023-02-01T05:43:43;6.40;99.90
72936;DHT22;61085;48.804;9.228;2023-02-01T05:46:09;6.40;99.90
72936;DHT22;61085;48.804;9.228;2023-02-01T05:48:42;6.50;99.90
72936;DHT22;61085;48.804;9.228;2023-02-01T05:51:09;6.30;99.90
72936;DHT22;61085;48.804;9.228;2023-02-01T05:53:35;6.30;99.90
72936;DHT22;61085;48.804;9.228;2023-02-01T05:56:01;6.40;99.90
72936;DHT22;61085;48.804;9.228;2023-02-01T05:58:26;6.40;99.90
72936;DHT22;61085;48.804;9.228;2023-02-01T06:00:52;6.40;99.90
72936;DHT22;61085;48.804;9.228;2023-02-01T06:03:18;6.40;99.90
72936;DHT22;61085;48.804;9.228;2023-02-01T06:05:45;6.40;99.90
72936;DHT22;61085;48.804;9.228;2023-02-01T06:08:11;6.30;99.90
72936;DHT22;61085;48.804;9.228;2023-02-01T06:10:37;6.30;99.90
72936;DHT22;61085;48.804;9.228;2023-02-01T06:13:03;6.30;99.90
72936;DHT22;61085;48.804;9.228;2023-02-01T06:15:29;6.20;99.90
72936;DHT22;61085;48.804;9.228;2023-02-01T06:17:54;6.20;99.90
72936;DHT22;61085;48.804;9.228;2023-02-01T06:20:21;6.20;99.90
72936;DHT22;61085;48.804;9.228;2023-02-01T06:22:46;6.20;99.90
72936;DHT22;61085;48.804;9.228;2023-02-01T06:25:12;6.10;99.90
72936;DHT22;61085;48.804;9.228;2023-02-01T06:27:38;6.10;99.90
72936;DHT22;61085;48.804;9.228;2023-02-01T06:30:05;6.00;99.90
72936;DHT22;61085;48.804;9.228;2023-02-01T06:32:32;6.20;99.90
72936;DHT22;61085;48.804;9.228;2023-02-01T06:34:57;6.30;99.90
72936;DHT22;61085;48.804;9.228;2023-02-01T06:37:25;6.20;99.90
72936;DHT22;61085;48.804;9.228;2023-02-01T06:39:52;6.20;99.90
72936;DHT22;61085;48.804;9.228;2023-02-01T06:42:18;6.20;99.90
72936;DHT22;61085;48.804;9.228;2023-02-01T06:44:44;6.30;99.90
72936;DHT22;61085;48.804;9.228;2023-02-01T06:47:09;6.20;99.90
72936;DHT22;61085;48.804;9.228;2023-02-01T06:49:35;6.30;99.90
72936;DHT22;61085;48.804;9.228;2023-02-01T06:52:00;6.40;99.90
72936;DHT22;61085;48.804;9.228;2023-02-01T06:54:27;6.30;99.90
72936;DHT22;61085;48.804;9.228;2023-02-01T06:56:53;6.30;99.90
72936;DHT22;61085;48.804;9.228;2023-02-01T06:59:19;6.40;99.90
72936;DHT22;61085;48.804;9.228;2023-02-01T07:01:44;6.40;99.90
72936;DHT22;61085;48.804;9.228;2023-02-01T07:04:11;6.40;99.90
72936;DHT22;61085;48.804;9.228;2023-02-01T07:06:41;6.30;99.90
72936;DHT22;61085;48.804;9.228;2023-02-01T07:09:07;6.40;99.90
72936;DHT22;61085;48.804;9.228;2023-02-01T07:11:32;6.30;99.90
72936;DHT22;61085;48.804;9.228;2023-02-01T07:13:58;6.40;99.90
72936;DHT22;61085;48.804;9.228;2023-02-01T07:16:24;6.40;99.90
72936;DHT22;61085;48.804;9.228;2023-02-01T07:18:51;6.50;99.90
72936;DHT22;61085;48.804;9.228;2023-02-01T07:21:18;6.50;99.90
72936;DHT22;61085;48.804;9.228;2023-02-01T07:23:44;6.50;99.90
72936;DHT22;61085;48.804;9.228;2023-02-01T07:26:11;6.50;99.90
72936;DHT22;61085;48.804;9.228;2023-02-01T07:28:46;6.60;99.90
72936;DHT22;61085;48.804;9.228;2023-02-01T07:31:17;6.60;99.90
72936;DHT22;61085;48.804;9.228;2023-02-01T07:33:47;6.70;99.90
72936;DHT22;61085;48.804;9.228;2023-02-01T07:36:15;6.70;99.90
72936;DHT22;61085;48.804;9.228;2023-02-01T07:38:42;6.60;99.90
72936;DHT22;61085;48.804;9.228;2023-02-01T07:41:08;6.60;99.90
72936;DHT22;61085;48.804;9.228;2023-02-01T07:43:34;6.60;99.90
72936;DHT22;61085;48.804;9.228;2023-02-01T07:46:01;6.60;99.90
72936;DHT22;61085;48.804;9.228;2023-02-01T07:48:27;6.60;99.90
72936;DHT22;61085;48.804;9.228;2023-02-01T07:51:03;6.60;99.90
72936;DHT22;61085;48.804;9.228;2023-02-01T07:53:31;6.60;99.90
72936;DHT22;61085;48.804;9.228;2023-02-01T07:55:57;6.60;99.90
72936;DHT22;61085;48.804;9.228;2023-02-01T07:58:24;6.60;99.90
72936;DHT22;61085;48.804;9.228;2023-02-01T08:00:49;6.70;99.90
72936;DHT22;61085;48.804;9.228;2023-02-01T08:03:35;6.70;99.90
72936;DHT22;61085;48.804;9.228;2023-02-01T08:06:01;6.60;99.90
72936;DHT22;61085;48.804;9.228;2023-02-01T08:08:27;6.80;99.90
72936;DHT22;61085;48.804;9.228;2023-02-01T08:11:01;6.80;99.90
72936;DHT22;61085;48.804;9.228;2023-02-01T08:13:27;6.80;99.90
72936;DHT22;61085;48.804;9.228;2023-02-01T08:15:58;7.00;99.90
72936;DHT22;61085;48.804;9.228;2023-02-01T08:18:24;6.90;99.90
72936;DHT22;61085;48.804;9.228;2023-02-01T08:20:49;7.00;99.90
72936;DHT22;61085;48.804;9.228;2023-02-01T08:23:16;7.10;99.90
72936;DHT22;61085;48.804;9.228;2023-02-01T08:25:42;7.00;99.90
72936;DHT22;61085;48.804;9.228;2023-02-01T08:28:09;7.10;99.90
72936;DHT22;61085;48.804;9.228;2023-02-01T08:30:36;7.20;99.90
72936;DHT22;61085;48.804;9.228;2023-02-01T08:33:02;7.20;99.90
72936;DHT22;61085;48.804;9.228;2023-02-01T08:35:28;7.10;99.90
72936;DHT22;61085;48.804;9.228;2023-02-01T08:37:54;7.20;99.90
72936;DHT22;61085;48.804;9.228;2023-02-01T08:40:19;7.40;99.90
72936;DHT22;61085;48.804;9.228;2023-02-01T08:42:47;7.50;99.90
72936;DHT22;61085;48.804;9.228;2023-02-01T08:45:26;7.30;99.90
72936;DHT22;61085;48.804;9.228;2023-02-01T08:47:53;7.50;99.90
72936;DHT22;61085;48.804;9.228;2023-02-01T08:50:20;7.50;99.90
72936;DHT22;61085;48.804;9.228;2023-02-01T08:52:46;7.50;99.90
72936;DHT22;61085;48.804;9.228;2023-02-01T08:55:12;7.60;99.90
72936;DHT22;61085;48.804;9.228;2023-02-01T08:57:39;7.60;99.90
72936;DHT22;61085;48.804;9.228;2023-02-01T09:00:06;7.70;99.90
72936;DHT22;61085;48.804;9.228;2023-02-01T09:02:33;7.70;99.90
72936;DHT22;61085;48.804;9.228;2023-02-01T09:04:59;7.80;99.90
72936;DHT22;61085;48.804;9.228;2023-02-01T09:07:25;7.80;99.90
72936;DHT22;61085;48.804;9.228;2023-02-01T09:09:50;7.80;99.90
72936;DHT22;61085;48.804;9.228;2023-02-01T09:12:16;7.80;99.90
72936;DHT22;61085;48.804;9.228;2023-02-01T09:14:41;7.80;99.90
72936;DHT22;61085;48.804;9.228;2023-02-01T09:17:07;7.70;99.90
72936;DHT22;61085;48.804;9.228;2023-02-01T09:19:33;7.90;99.90
72936;DHT22;61085;48.804;9.228;2023-02-01T09:21:58;7.70;99.90
72936;DHT22;61085;48.804;9.228;2023-02-01T09:24:24;7.70;99.90
72936;DHT22;61085;48.804;9.228;2023-02-01T09:26:50;7.70;99.90
72936;DHT22;61085;48.804;9.228;2023-02-01T09:29:15;7.70;99.90
72936;DHT22;61085;48.804;9.228;2023-02-01T09:31:41;7.60;99.90
72936;DHT22;61085;48.804;9.228;2023-02-01T09:34:07;7.70;99.90
72936;DHT22;61085;48.804;9.228;2023-02-01T09:36:33;7.80;99.90
72936;DHT22;61085;48.804;9.228;2023-02-01T09:38:59;7.90;99.90
72936;DHT22;61085;48.804;9.228;2023-02-01T09:46:55;8.10;99.50
72936;DHT22;61085;48.804;9.228;2023-02-01T09:49:37;8.10;99.30
72936;DHT22;61085;48.804;9.228;2023-02-01T09:52:10;8.10;99.30
72936;DHT22;61085;48.804;9.228;2023-02-01T09:54:50;8.00;98.90
72936;DHT22;61085;48.804;9.228;2023-02-01T09:57:24;8.10;98.90
72936;DHT22;61085;48.804;9.228;2023-02-01T10:00:03;8.10;98.80
72936;DHT22;61085;48.804;9.228;2023-02-01T10:02:30;8.10;99.00
72936;DHT22;61085;48.804;9.228;2023-02-01T10:05:00;8.20;97.90
72936;DHT22;61085;48.804;9.228;2023-02-01T10:08:01;8.20;96.90
72936;DHT22;61085;48.804;9.228;2023-02-01T10:10:49;8.10;97.10
72936;DHT22;61085;48.804;9.228;2023-02-01T10:15:59;8.10;97.30
72936;DHT22;61085;48.804;9.228;2023-02-01T10:21:01;8.10;96.50
72936;DHT22;61085;48.804;9.228;2023-02-01T10:24:02;8.10;96.60
72936;DHT22;61085;48.804;9.228;2023-02-01T10:26:32;8.20;96.40
72936;DHT22;61085;48.804;9.228;2023-02-01T10:29:01;8.30;95.70
72936;DHT22;61085;48.804;9.228;2023-02-01T10:31:36;8.30;95.40
72936;DHT22;61085;48.804;9.228;2023-02-01T10:34:22;8.40;95.00
72936;DHT22;61085;48.804;9.228;2023-02-01T10:39:49;8.60;94.70
72936;DHT22;61085;48.804;9.228;2023-02-01T10:42:20;8.60;94.80
72936;DHT22;61085;48.804;9.228;2023-02-01T10:44:47;8.60;93.70
72936;DHT22;61085;48.804;9.228;2023-02-01T10:47:16;8.60;93.20
72936;DHT22;61085;48.804;9.228;2023-02-01T10:52:52;8.40;94.50
72936;DHT22;61085;48.804;9.228;2023-02-01T10:55:40;8.40;95.20
72936;DHT22;61085;48.804;9.228;2023-02-01T10:58:27;8.40;94.70
72936;DHT22;61085;48.804;9.228;2023-02-01T11:01:08;8.50;94.50
72936;DHT22;61085;48.804;9.228;2023-02-01T11:03:51;8.50;94.30
72936;DHT22;61085;48.804;9.228;2023-02-01T11:06:35;8.60;93.50
72936;DHT22;61085;48.804;9.228;2023-02-01T11:09:19;8.60;93.30
72936;DHT22;61085;48.804;9.228;2023-02-01T11:14:17;8.60;92.80
72936;DHT22;61085;48.804;9.228;2023-02-01T11:16:49;8.50;92.80
72936;DHT22;61085;48.804;9.228;2023-02-01T11:19:16;8.60;93.30
72936;DHT22;61085;48.804;9.228;2023-02-01T11:21:43;8.60;92.60
72936;DHT22;61085;48.804;9.228;2023-02-01T11:24:31;8.50;92.70
72936;DHT22;61085;48.804;9.228;2023-02-01T11:27:00;8.50;92.80
72936;DHT22;61085;48.804;9.228;2023-02-01T11:29:35;8.50;91.50
72936;DHT22;61085;48.804;9.228;2023-02-01T11:32:02;8.50;91.90
72936;DHT22;61085;48.804;9.228;2023-02-01T11:34:38;8.40;92.00
72936;DHT22;61085;48.804;9.228;2023-02-01T11:37:27;8.40;92.10
72936;DHT22;61085;48.804;9.228;2023-02-01T11:42:55;8.50;91.80
72936;DHT22;61085;48.804;9.228;2023-02-01T11:45:29;8.50;90.90
72936;DHT22;61085;48.804;9.228;2023-02-01T11:47:57;8.50;90.60
72936;DHT22;61085;48.804;9.228;2023-02-01T11:50:40;8.50;91.30
72936;DHT22;61085;48.804;9.228;2023-02-01T12:06:45;8.60;88.90
72936;DHT22;61085;48.804;9.228;2023-02-01T12:12:22;8.60;87.40
72936;DHT22;61085;48.804;9.228;2023-02-01T12:25:24;8.40;87.90
72936;DHT22;61085;48.804;9.228;2023-02-01T12:30:39;8.50;87.80
72936;DHT22;61085;48.804;9.228;2023-02-01T12:33:31;8.50;88.70
72936;DHT22;61085;48.804;9.228;2023-02-01T12:38:44;8.50;88.00
72936;DHT22;61085;48.804;9.228;2023-02-01T12:47:02;8.30;88.30
72936;DHT22;61085;48.804;9.228;2023-02-01T12:49:48;8.30;89.20
72936;DHT22;61085;48.804;9.228;2023-02-01T12:55:01;8.30;90.40
72936;DHT22;61085;48.804;9.228;2023-02-01T12:57:35;8.30;90.30
72936;DHT22;61085;48.804;9.228;2023-02-01T13:06:07;8.30;91.40
72936;DHT22;61085;48.804;9.228;2023-02-01T13:08:48;8.30;91.40
72936;DHT22;61085;48.804;9.228;2023-02-01T13:11:24;8.30;93.70
72936;DHT22;61085;48.804;9.228;2023-02-01T13:22:10;8.00;97.00
72936;DHT22;61085;48.804;9.228;2023-02-01T13:24:46;8.00;96.80
72936;DHT22;61085;48.804;9.228;2023-02-01T13:27:14;8.10;96.60
72936;DHT22;61085;48.804;9.228;2023-02-01T13:29:59;8.10;95.50
72936;DHT22;61085;48.804;9.228;2023-02-01T13:40:41;8.10;94.50
72936;DHT22;61085;48.804;9.228;2023-02-01T13:43:29;8.10;93.50
72936;DHT22;61085;48.804;9.228;2023-02-01T13:46:02;8.00;93.10
72936;DHT22;61085;48.804;9.228;2023-02-01T13:51:07;8.00;93.20
72936;DHT22;61085;48.804;9.228;2023-02-01T13:53:35;7.90;94.50
72936;DHT22;61085;48.804;9.228;2023-02-01T13:56:19;8.00;95.70
72936;DHT22;61085;48.804;9.228;2023-02-01T13:58:47;7.90;96.40
72936;DHT22;61085;48.804;9.228;2023-02-01T14:11:48;7.70;98.90
72936;DHT22;61085;48.804;9.228;2023-02-01T14:24:41;8.00;96.00
72936;DHT22;61085;48.804;9.228;2023-02-01T14:29:42;8.00;95.90
72936;DHT22;61085;48.804;9.228;2023-02-01T14:37:28;8.00;94.20
72936;DHT22;61085;48.804;9.228;2023-02-01T15:03:48;7.80;95.50
72936;DHT22;61085;48.804;9.228;2023-02-01T15:06:25;7.80;96.00
72936;DHT22;61085;48.804;9.228;2023-02-01T15:08:58;7.80;96.60
72936;DHT22;61085;48.804;9.228;2023-02-01T15:11:25;7.90;95.90
72936;DHT22;61085;48.804;9.228;2023-02-01T15:13:52;7.80;95.30
72936;DHT22;61085;48.804;9.228;2023-02-01T15:16:20;7.80;95.30
72936;DHT22;61085;48.804;9.228;2023-02-01T15:18:47;7.90;94.90
72936;DHT22;61085;48.804;9.228;2023-02-01T15:21:23;7.90;95.00
72936;DHT22;61085;48.804;9.228;2023-02-01T15:23:50;7.90;94.30
72936;DHT22;61085;48.804;9.228;2023-02-01T15:26:30;7.90;94.40
72936;DHT22;61085;48.804;9.228;2023-02-01T15:28:57;8.10;95.10
72936;DHT22;61085;48.804;9.228;2023-02-01T15:31:53;7.90;94.10
72936;DHT22;61085;48.804;9.228;2023-02-01T15:34:20;7.80;94.50
72936;DHT22;61085;48.804;9.228;2023-02-01T15:36:46;7.80;95.00
72936;DHT22;61085;48.804;9.228;2023-02-01T15:41:50;7.70;94.40
72936;DHT22;61085;48.804;9.228;2023-02-01T15:46:53;7.80;94.30
72936;DHT22;61085;48.804;9.228;2023-02-01T15:49:39;7.80;94.70
72936;DHT22;61085;48.804;9.228;2023-02-01T15:52:20;7.70;94.30
72936;DHT22;61085;48.804;9.228;2023-02-01T15:54:49;7.80;94.50
72936;DHT22;61085;48.804;9.228;2023-02-01T15:57:24;7.80;94.40
72936;DHT22;61085;48.804;9.228;2023-02-01T15:59:57;8.00;94.90
72936;DHT22;61085;48.804;9.228;2023-02-01T16:02:51;7.80;93.90
72936;DHT22;61085;48.804;9.228;2023-02-01T16:05:38;7.80;93.90
72936;DHT22;61085;48.804;9.228;2023-02-01T16:10:46;7.80;93.00
72936;DHT22;61085;48.804;9.228;2023-02-01T16:13:13;7.80;93.10
72936;DHT22;61085;48.804;9.228;2023-02-01T16:15:38;8.10;92.20
72936;DHT22;61085;48.804;9.228;2023-02-01T16:18:05;7.80;92.80
72936;DHT22;61085;48.804;9.228;2023-02-01T16:20:33;7.80;92.20
72936;DHT22;61085;48.804;9.228;2023-02-01T16:23:01;7.80;92.00
72936;DHT22;61085;48.804;9.228;2023-02-01T16:25:27;7.80;91.60
72936;DHT22;61085;48.804;9.228;2023-02-01T16:27:52;7.70;91.90
72936;DHT22;61085;48.804;9.228;2023-02-01T16:30:18;7.80;91.90
72936;DHT22;61085;48.804;9.228;2023-02-01T16:32:49;7.70;91.60
72936;DHT22;61085;48.804;9.228;2023-02-01T16:35:35;7.80;91.60
72936;DHT22;61085;48.804;9.228;2023-02-01T16:38:04;7.80;91.60
72936;DHT22;61085;48.804;9.228;2023-02-01T16:40:34;7.80;91.50
72936;DHT22;61085;48.804;9.228;2023-02-01T16:43:00;7.80;91.30
72936;DHT22;61085;48.804;9.228;2023-02-01T16:45:25;7.80;91.10
72936;DHT22;61085;48.804;9.228;2023-02-01T16:47:54;7.70;91.00
72936;DHT22;61085;48.804;9.228;2023-02-01T16:50:24;7.80;91.20
72936;DHT22;61085;48.804;9.228;2023-02-01T16:52:51;7.80;91.10
72936;DHT22;61085;48.804;9.228;2023-02-01T16:55:18;7.80;91.10
72936;DHT22;61085;48.804;9.228;2023-02-01T16:57:45;7.80;91.10
72936;DHT22;61085;48.804;9.228;2023-02-01T17:00:11;7.70;91.40
72936;DHT22;61085;48.804;9.228;2023-02-01T17:02:38;7.80;91.60
72936;DHT22;61085;48.804;9.228;2023-02-01T17:05:05;7.70;91.70
72936;DHT22;61085;48.804;9.228;2023-02-01T17:07:31;7.70;91.60
72936;DHT22;61085;48.804;9.228;2023-02-01T17:09:57;7.70;91.80
72936;DHT22;61085;48.804;9.228;2023-02-01T17:12:26;7.70;92.00
72936;DHT22;61085;48.804;9.228;2023-02-01T17:14:52;7.70;92.00
72936;DHT22;61085;48.804;9.228;2023-02-01T17:17:19;7.70;91.80
72936;DHT22;61085;48.804;9.228;2023-02-01T17:19:48;7.70;92.00
72936;DHT22;61085;48.804;9.228;2023-02-01T17:22:22;7.70;91.80
72936;DHT22;61085;48.804;9.228;2023-02-01T17:24:49;8.00;91.60
72936;DHT22;61085;48.804;9.228;2023-02-01T17:27:16;7.70;91.60
72936;DHT22;61085;48.804;9.228;2023-02-01T17:29:42;7.70;91.30
72936;DHT22;61085;48.804;9.228;2023-02-01T17:32:23;7.70;91.20
72936;DHT22;61085;48.804;9.228;2023-02-01T17:34:50;7.80;91.40
72936;DHT22;61085;48.804;9.228;2023-02-01T17:37:36;7.70;91.30
72936;DHT22;61085;48.804;9.228;2023-02-01T17:40:02;7.70;91.90
72936;DHT22;61085;48.804;9.228;2023-02-01T17:42:29;7.70;92.30
72936;DHT22;61085;48.804;9.228;2023-02-01T17:45:15;7.80;92.20
72936;DHT22;61085;48.804;9.228;2023-02-01T17:47:42;7.80;91.50
72936;DHT22;61085;48.804;9.228;2023-02-01T17:50:08;7.80;91.70
72936;DHT22;61085;48.804;9.228;2023-02-01T17:52:34;7.80;91.80
72936;DHT22;61085;48.804;9.228;2023-02-01T17:55:00;7.70;92.10
72936;DHT22;61085;48.804;9.228;2023-02-01T17:57:28;7.70;92.30
72936;DHT22;61085;48.804;9.228;2023-02-01T17:59:53;7.90;92.40
72936;DHT22;61085;48.804;9.228;2023-02-01T18:02:23;7.80;92.50
72936;DHT22;61085;48.804;9.228;2023-02-01T18:04:50;7.70;93.00
72936;DHT22;61085;48.804;9.228;2023-02-01T18:07:16;7.70;93.00
72936;DHT22;61085;48.804;9.228;2023-02-01T18:09:41;7.70;93.40
72936;DHT22;61085;48.804;9.228;2023-02-01T18:12:17;7.70;93.40
72936;DHT22;61085;48.804;9.228;2023-02-01T18:14:44;7.70;93.60
72936;DHT22;61085;48.804;9.228;2023-02-01T18:17:12;7.60;93.60
72936;DHT22;61085;48.804;9.228;2023-02-01T18:19:39;7.70;93.70
72936;DHT22;61085;48.804;9.228;2023-02-01T18:22:05;7.60;93.70
72936;DHT22;61085;48.804;9.228;2023-02-01T18:24:31;7.70;95.40
72936;DHT22;61085;48.804;9.228;2023-02-01T18:26:59;7.50;93.90
72936;DHT22;61085;48.804;9.228;2023-02-01T18:29:25;7.70;93.90
72936;DHT22;61085;48.804;9.228;2023-02-01T18:31:51;7.70;94.10
72936;DHT22;61085;48.804;9.228;2023-02-01T18:34:17;7.70;94.20
72936;DHT22;61085;48.804;9.228;2023-02-01T18:36:48;7.70;94.20
72936;DHT22;61085;48.804;9.228;2023-02-01T18:39:13;7.70;94.50
72936;DHT22;61085;48.804;9.228;2023-02-01T18:41:43;7.70;94.40
72936;DHT22;61085;48.804;9.228;2023-02-01T18:44:13;7.70;94.60
72936;DHT22;61085;48.804;9.228;2023-02-01T18:46:39;7.70;94.50
72936;DHT22;61085;48.804;9.228;2023-02-01T18:49:05;7.70;94.30
72936;DHT22;61085;48.804;9.228;2023-02-01T18:51:31;7.70;94.00
72936;DHT22;61085;48.804;9.228;2023-02-01T18:53:56;7.70;94.00
72936;DHT22;61085;48.804;9.228;2023-02-01T18:56:22;7.70;93.90
72936;DHT22;61085;48.804;9.228;2023-02-01T18:58:48;7.70;93.60
72936;DHT22;61085;48.804;9.228;2023-02-01T19:01:16;7.70;94.10
72936;DHT22;61085;48.804;9.228;2023-02-01T19:03:42;7.70;93.40
72936;DHT22;61085;48.804;9.228;2023-02-01T19:06:08;7.70;93.40
72936;DHT22;61085;48.804;9.228;2023-02-01T19:08:34;7.70;93.10
72936;DHT22;61085;48.804;9.228;2023-02-01T19:11:07;7.70;92.90